OEMA Airport Information

Runway Information
Runway 17 Length 13149 ft width 147 ft
Elevation 2151 ft Threshold 1805 ft Heading 169
Runway 35 Length 13149 ft Width 147 ft
Elevation 2083 ft Threshold 0 ft Heading 349
Runway 18 Length 10039 ft width 147 ft
Elevation 2144 ft Threshold 0 ft Heading 184
Runway 36 Length 10039 ft Width 147 ft
Elevation 2079 ft Threshold 0 ft Heading 4
Airport Frequencies
Type APP Name MADINAH AP Frequency 124.2 MHZ
Type ATIS Name ATIS Frequency 114.1 MHZ
Type GND Name GND Frequency 121.9 MHZ
Type TWR Name MADINAH TW Frequency 118.3 MHZ
Airport Navaids
Type VOR-DME Name Prince Mohammad Bin Abdulaziz Frequency 114100 KHZ
Airport Weather Information & NOTAM
ADDS - METARS form results

(0424 UTC 19 June 2018)
 
METAR text: OEMA 190400Z 11005KT CAVOK 34/M08 Q1011 NOSIG
Conditions at: OEMA (MADINAH INTL ARP, SA) observed 0400 UTC 19 June 2018
Temperature: 34.0°C (93°F)
Dewpoint: -8.0°C (18°F) [RH = 6%]
Pressure (altimeter): 29.85 inches Hg (1011.0 mb)
Winds: from the ESE (110 degrees) at 6 MPH (5 knots; 2.6 m/s)
Visibility: 6 or more miles (10+ km)
Ceiling: ceiling and visibility are OK
Clouds: unknown
Weather: no significant weather observed at this time